createdAt,value
2023-03-24T00:06:37.243Z,4.68
2023-03-24T03:26:04.890Z,4.25
2023-03-24T03:36:30.617Z,4.10
2023-03-24T03:46:32.972Z,4.10
2023-03-24T03:56:43.212Z,4.15
2023-03-24T04:07:24.518Z,7.15
2023-03-24T04:17:50.686Z,4.45
2023-03-24T04:28:33.196Z,4.20
2023-03-24T04:38:41.638Z,4.30
2023-03-24T04:49:03.938Z,4.47
2023-03-24T04:59:10.341Z,4.60
2023-03-24T05:09:18.375Z,4.93
2023-03-24T05:19:20.951Z,5.43
2023-03-24T05:29:27.992Z,5.55
2023-03-24T05:39:31.514Z,7.43
2023-03-24T05:49:45.482Z,7.95
2023-03-24T05:59:50.393Z,7.50
2023-03-24T06:10:20.464Z,7.70
2023-03-24T06:20:28.114Z,9.33
2023-03-24T06:30:37.395Z,8.10
2023-03-24T06:40:43.779Z,7.80
2023-03-24T06:50:50.376Z,7.90
2023-03-24T07:01:02.045Z,7.45
2023-03-24T07:11:34.712Z,6.75
2023-03-24T07:21:44.872Z,7.78
2023-03-24T07:31:54.917Z,7.75
2023-03-24T07:42:03.766Z,7.40
2023-03-24T07:52:30.593Z,6.55
2023-03-24T08:02:34.402Z,6.70
2023-03-24T08:12:57.731Z,6.80
2023-03-24T08:23:05.115Z,6.95
2023-03-24T08:33:07.622Z,7.15
2023-03-24T08:43:15.405Z,6.90
2023-03-24T08:53:20.902Z,7.30
2023-03-24T09:03:26.479Z,7.28
2023-03-24T09:13:35.405Z,7.63
2023-03-24T09:23:40.658Z,7.70
2023-03-24T09:33:43.076Z,7.38
2023-03-24T09:44:01.339Z,7.25
2023-03-24T09:54:22.643Z,6.82
2023-03-24T10:04:28.307Z,6.40
2023-03-24T10:15:07.189Z,6.35
2023-03-24T10:25:25.666Z,7.20
2023-03-24T10:35:35.167Z,6.25
2023-03-24T10:45:43.351Z,6.10
2023-03-24T10:55:52.875Z,6.90
2023-03-24T11:06:03.151Z,6.75
2023-03-24T11:16:12.381Z,6.15
2023-03-24T11:26:17.138Z,6.25
2023-03-24T11:36:33.225Z,6.25
2023-03-24T11:46:40.325Z,7.00
2023-03-24T11:56:51.841Z,7.03
2023-03-24T12:07:32.517Z,6.03
2023-03-24T12:17:52.523Z,5.80
2023-03-24T12:28:09.755Z,5.30
2023-03-24T12:38:30.658Z,4.70
2023-03-24T12:49:04.871Z,4.80
2023-03-24T12:59:13.816Z,4.30
2023-03-24T13:09:34.879Z,3.75
2023-03-24T13:19:37.502Z,3.55
2023-03-24T13:29:49.131Z,3.38
2023-03-24T13:40:04.967Z,3.08
2023-03-24T13:50:11.333Z,3.47
2023-03-24T14:00:24.835Z,2.60
2023-03-24T14:10:40.191Z,2.47
2023-03-24T14:21:06.818Z,2.28
2023-03-24T14:31:37.509Z,2.45
2023-03-24T14:41:55.326Z,2.80
2023-03-24T14:52:19.793Z,2.75
2023-03-24T15:02:48.262Z,3.30
2023-03-24T15:12:50.807Z,2.88
2023-03-24T15:23:07.497Z,2.20
2023-03-24T15:33:14.370Z,2.47
2023-03-24T15:43:20.071Z,2.55
2023-03-24T15:53:29.777Z,2.83
2023-03-24T16:03:35.918Z,2.80
2023-03-24T16:13:45.122Z,2.83
2023-03-24T16:23:51.665Z,2.60
2023-03-24T16:33:57.726Z,2.90
2023-03-24T16:44:00.480Z,3.30
2023-03-24T16:54:09.540Z,4.32
2023-03-24T17:04:17.246Z,3.80
2023-03-24T17:14:22.466Z,4.85
2023-03-24T17:24:28.874Z,5.55
2023-03-24T17:34:31.328Z,6.35
2023-03-24T17:44:34.151Z,7.22
2023-03-24T17:54:36.777Z,7.43
2023-03-24T18:04:46.112Z,8.10
2023-03-24T18:14:55.450Z,8.98
2023-03-24T18:24:58.628Z,8.35
2023-03-24T18:35:05.410Z,8.30
2023-03-24T18:45:17.524Z,8.65
2023-03-24T18:55:24.510Z,6.72
2023-03-24T19:05:31.369Z,6.22
2023-03-24T19:15:37.700Z,6.35
2023-03-24T19:25:44.979Z,6.85
2023-03-24T19:35:53.028Z,7.47
2023-03-24T19:45:58.840Z,8.00
2023-03-24T19:56:07.458Z,8.02
2023-03-24T20:06:11.503Z,8.18
2023-03-24T20:16:21.084Z,8.90
2023-03-24T20:26:29.761Z,8.63
2023-03-24T20:36:34.239Z,9.68
2023-03-24T20:46:40.526Z,9.73
2023-03-24T20:56:46.153Z,9.15
2023-03-24T21:06:51.290Z,8.77
2023-03-24T21:16:56.975Z,6.57
2023-03-24T21:27:01.080Z,5.55
2023-03-24T21:37:14.616Z,4.32
2023-03-24T21:57:44.653Z,4.82
2023-03-24T22:07:50.382Z,5.68
2023-03-24T22:17:55.785Z,6.30
2023-03-24T22:28:01.371Z,5.50
2023-03-24T22:38:15.000Z,6.70
2023-03-24T22:48:21.381Z,6.15
2023-03-24T22:58:24.741Z,6.07
2023-03-24T23:08:31.211Z,5.40
2023-03-24T23:18:36.292Z,4.53
2023-03-24T23:28:43.979Z,4.93
2023-03-24T23:38:51.360Z,4.65
2023-03-24T23:49:04.542Z,4.85
2023-03-24T23:59:10.204Z,4.80
